METAR Data
IDs: Format: Raw Decoded Include TAF

Data at: 1345 UTC 10 Aug 2022

KSMO 101251Z AUTO 00000KT 10SM CLR 21/14 A2996 RMK AO2 SLP144 T02110139
KSMO 101151Z AUTO 21003KT 10SM CLR 21/17 A2996 RMK AO2 SLP143 T02110167 10217 20206 56003
KSMO 101051Z AUTO 00000KT 10SM CLR 21/17 A2996 RMK AO2 SLP143 T02110167
KSMO 100951Z AUTO 00000KT 10SM CLR 21/17 A2996 RMK AO2 SLP143 T02060172
KSMO 100851Z AUTO 00000KT 10SM CLR 21/18 A2997 RMK AO2 SLP146 T02110178 58001
KSMO 100751Z AUTO 00000KT 10SM CLR 21/17 A2997 RMK AO2 SLP146 T02110172 403000206
KSMO 100651Z AUTO 00000KT 10SM CLR 22/15 A2998 RMK AO2 SLP149 T02170150
KSMO 100551Z AUTO 00000KT 10SM CLR 21/16 A2997 RMK AO2 SLP147 T02110161 10267 20211 51023
KSMO 100451Z AUTO 00000KT 10SM CLR 21/16 A2996 RMK AO2 SLP143 T02110156
KSMO 100351Z AUTO 19003KT 10SM CLR 21/15 A2993 RMK AO2 SLP132 T02110150
KSMO 100251Z 20005KT 10SM CLR 22/15 A2990 RMK AO2 SLP124 T02170150 53002
KSMO 100151Z 21007KT 10SM CLR 24/15 A2989 RMK AO2 SLP119 T02390150
KSMO 100051Z 24007KT 210V270 10SM CLR 24/15 A2989 RMK AO2 SLP119 T02440150
KSMO 092351Z 24008KT 10SM CLR 26/14 A2990 RMK AO2 SLP121 T02610139 10300 20256 56010
KSMO 092251Z VRB05KT 10SM CLR 28/14 A2990 RMK AO2 SLP122 T02830144
KSMO 092151Z 23009KT 10SM CLR 28/16 A2991 RMK AO2 SLP127 T02780156
KSMO 092051Z 23008KT 10SM CLR 29/16 A2993 RMK AO2 SLP132 T02890156 58011
KSMO 091951Z 21008KT 10SM CLR 28/16 A2994 RMK AO2 SLP137 T02830156
KSMO 091851Z 22007KT 10SM CLR 28/16 A2995 RMK AO2 SLP140 T02780156
KSMO 091751Z 22008KT 10SM CLR 26/16 A2996 RMK AO2 SLP143 T02560161 10272 20206 52006
KSMO 091651Z 24005KT 10SM CLR 26/16 A2995 RMK AO2 SLP140 T02610161
KSMO 091551Z 22005KT 10SM CLR 26/16 A2995 RMK AO2 SLP139 T02560161
KSMO 091451Z 20003KT 10SM CLR 23/17 A2994 RMK AO2 SLP136 T02280167 53013
KSMO 091351Z 25003KT 10SM CLR 21/16 A2993 RMK AO2 SLP132 T02110161
KSMO 091251Z AUTO 21003KT 10SM CLR 21/16 A2991 RMK AO2 SLP128 T02110161
KSMO 091151Z AUTO 00000KT 10SM CLR 21/16 A2990 RMK AO2 SLP124 T02060161 10222 20206 56003
KSMO 091051Z AUTO 00000KT 10SM CLR 22/16 A2990 RMK AO2 SLP124 T02170161
KSMO 090951Z AUTO 00000KT 10SM CLR 21/16 A2991 RMK AO2 SLP125 T02060161
KSMO 090851Z AUTO 00000KT 10SM CLR 21/16 A2991 RMK AO2 SLP127 T02110156 58006
KSMO 090751Z AUTO 00000KT 10SM CLR 21/16 A2993 RMK AO2 SLP133 T02060156 402670194
KSMO 090651Z AUTO 00000KT 10SM CLR 21/16 A2993 RMK AO2 SLP134 T02060156
KSMO 090551Z AUTO 23003KT 10SM CLR 21/16 A2993 RMK AO2 SLP133 T02110156 10256 20211 50015
KSMO 090451Z AUTO 18003KT 10SM CLR 21/15 A2994 RMK AO2 SLP136 T02110150
KSMO 090351Z AUTO 17005KT 10SM CLR 22/16 A2991 RMK AO2 SLP128 T02170156
KSMO 090251Z 25004KT 10SM CLR 23/16 A2989 RMK AO2 SLP118 T02280156 53003
KSMO 090151Z 24004KT 10SM CLR 24/16 A2987 RMK AO2 SLP112 T02440156